createdAt,value
2018-05-04T00:00:02.036Z,20.73
2018-05-04T00:02:29.573Z,20.63
2018-05-04T00:04:57.084Z,21.53
2018-05-04T00:07:24.630Z,21.73
2018-05-04T00:09:52.142Z,21.47
2018-05-04T00:12:19.710Z,21.43
2018-05-04T00:14:47.218Z,21.33
2018-05-04T00:17:14.764Z,21.00
2018-05-04T00:19:43.064Z,21.37
2018-05-04T00:22:10.611Z,20.83
2018-05-04T00:24:38.127Z,23.40
2018-05-04T00:27:05.673Z,22.10
2018-05-04T00:29:33.183Z,22.20
2018-05-04T00:32:00.752Z,22.70
2018-05-04T00:34:28.267Z,22.50
2018-05-04T00:36:55.783Z,22.37
2018-05-04T00:39:23.313Z,22.43
2018-05-04T00:41:51.587Z,22.90
2018-05-04T00:44:19.897Z,23.53
2018-05-04T00:46:47.399Z,23.13
2018-05-04T00:49:14.947Z,22.50
2018-05-04T00:51:42.463Z,23.43
2018-05-04T00:54:24.732Z,24.10
2018-05-04T00:56:52.239Z,24.23
2018-05-04T00:59:19.793Z,24.47
2018-05-04T01:01:47.320Z,24.23
2018-05-04T01:04:14.889Z,23.57
2018-05-04T01:06:42.408Z,24.27
2018-05-04T01:09:09.956Z,25.10
2018-05-04T01:11:37.467Z,25.17
2018-05-04T01:14:05.016Z,26.03
2018-05-04T01:16:32.516Z,24.70
2018-05-04T01:19:00.080Z,25.90
2018-05-04T01:21:27.599Z,25.53
2018-05-04T01:23:55.117Z,25.90
2018-05-04T01:26:22.694Z,26.33
2018-05-04T01:28:50.214Z,26.27
2018-05-04T01:31:17.760Z,26.00
2018-05-04T01:33:45.276Z,26.17
2018-05-04T01:36:12.832Z,26.07
2018-05-04T01:38:40.352Z,26.33
2018-05-04T01:41:07.902Z,25.93
2018-05-04T01:43:35.429Z,25.73
2018-05-04T01:46:02.988Z,26.53
2018-05-04T01:48:30.512Z,25.83
2018-05-04T01:50:58.062Z,25.77
2018-05-04T01:53:25.580Z,26.57
2018-05-04T01:55:53.123Z,25.27
2018-05-04T01:58:20.666Z,24.70
2018-05-04T02:00:48.177Z,24.23
2018-05-04T02:03:15.724Z,24.57
2018-05-04T02:05:43.240Z,26.37
2018-05-04T02:08:10.775Z,24.20
2018-05-04T02:10:38.286Z,23.67
2018-05-04T02:13:06.596Z,23.00
2018-05-04T02:15:34.133Z,23.50
2018-05-04T02:18:01.678Z,23.10
2018-05-04T02:20:29.952Z,22.20
2018-05-04T02:22:58.283Z,22.10
2018-05-04T02:25:25.800Z,23.33
2018-05-04T02:27:53.342Z,21.80
2018-05-04T02:30:21.632Z,22.53
2018-05-04T02:32:49.189Z,23.10
2018-05-04T02:35:16.726Z,22.13
2018-05-04T02:37:44.304Z,21.77
2018-05-04T02:40:11.848Z,23.60
2018-05-04T02:42:39.386Z,22.37
2018-05-04T02:45:06.938Z,22.20
2018-05-04T02:47:34.460Z,24.10
2018-05-04T02:50:02.028Z,23.43
2018-05-04T02:52:29.548Z,23.40
2018-05-04T02:54:57.100Z,23.30
2018-05-04T02:57:24.620Z,23.47
2018-05-04T02:59:52.205Z,24.90
2018-05-04T03:02:19.696Z,23.43
2018-05-04T03:04:47.253Z,25.40
2018-05-04T03:07:15.546Z,23.97
2018-05-04T03:09:43.088Z,23.87
2018-05-04T03:12:10.606Z,24.17
2018-05-04T03:14:38.157Z,24.13
2018-05-04T03:17:05.693Z,23.30
2018-05-04T03:19:33.210Z,24.87
2018-05-04T03:22:00.801Z,23.40
2018-05-04T03:24:28.290Z,24.60
2018-05-04T03:26:55.843Z,26.13
2018-05-04T03:29:23.351Z,24.60
2018-05-04T03:31:50.898Z,23.97
2018-05-04T03:34:18.402Z,24.47
2018-05-04T03:36:45.955Z,24.70
2018-05-04T03:39:13.456Z,24.13
2018-05-04T03:41:41.008Z,23.77
2018-05-04T03:44:08.529Z,24.60
2018-05-04T03:46:36.936Z,24.47
2018-05-04T03:49:04.464Z,24.43
2018-05-04T03:51:32.017Z,23.77
2018-05-04T03:54:00.313Z,23.80
2018-05-04T03:56:27.864Z,24.73
2018-05-04T03:59:07.053Z,24.00
2018-05-04T04:01:46.436Z,24.27
2018-05-04T04:04:14.303Z,23.53
2018-05-04T04:06:41.843Z,24.07
2018-05-04T04:09:09.388Z,24.70
2018-05-04T04:11:36.914Z,25.43
2018-05-04T04:14:04.456Z,24.70
2018-05-04T04:16:31.976Z,25.50
2018-05-04T04:18:59.512Z,24.73
2018-05-04T04:21:27.145Z,25.00
2018-05-04T04:23:54.688Z,23.70
2018-05-04T04:26:22.198Z,25.07
2018-05-04T04:28:50.543Z,25.10
2018-05-04T04:31:18.070Z,24.50
2018-05-04T04:33:45.630Z,24.43
2018-05-04T04:36:13.144Z,25.63
2018-05-04T04:38:40.690Z,25.67
2018-05-04T04:41:08.198Z,25.23
2018-05-04T04:43:36.502Z,25.33
2018-05-04T04:46:04.024Z,25.27
2018-05-04T04:48:31.578Z,26.03
2018-05-04T04:50:59.098Z,25.40
2018-05-04T04:53:26.590Z,26.60
2018-05-04T04:55:54.150Z,25.57
2018-05-04T04:58:21.660Z,26.17
2018-05-04T05:00:49.190Z,25.63
2018-05-04T05:03:16.702Z,25.13
2018-05-04T05:05:44.998Z,25.77
2018-05-04T05:08:12.518Z,25.23
2018-05-04T05:10:40.763Z,25.07
2018-05-04T05:13:09.038Z,26.43
2018-05-04T05:15:36.578Z,26.27
2018-05-04T05:18:04.087Z,25.83
2018-05-04T05:20:31.626Z,26.30
2018-05-04T05:22:59.137Z,27.37
2018-05-04T05:25:26.696Z,26.00
2018-05-04T05:27:54.974Z,26.17
2018-05-04T05:30:22.517Z,26.33
2018-05-04T05:32:50.790Z,25.87
2018-05-04T05:35:18.362Z,26.47
2018-05-04T05:37:45.879Z,27.00
2018-05-04T05:40:13.910Z,27.07
2018-05-04T05:42:41.458Z,36.00
2018-05-04T05:45:09.751Z,34.87
2018-05-04T05:47:37.303Z,26.70
2018-05-04T05:50:04.806Z,26.53
2018-05-04T05:52:32.348Z,25.47
2018-05-04T05:54:59.863Z,25.67
2018-05-04T05:57:27.402Z,25.50
2018-05-04T05:59:54.910Z,25.77
2018-05-04T06:02:22.448Z,26.77
2018-05-04T06:04:49.957Z,26.13
2018-05-04T06:07:17.522Z,25.33
2018-05-04T06:09:45.033Z,25.30
2018-05-04T06:12:12.716Z,25.80
2018-05-04T06:14:40.268Z,24.87
2018-05-04T06:17:07.861Z,24.17
2018-05-04T06:19:35.480Z,24.50
2018-05-04T06:22:03.061Z,24.83
2018-05-04T06:24:30.643Z,25.53
2018-05-04T06:26:58.214Z,25.07
2018-05-04T06:29:25.816Z,25.57
2018-05-04T06:31:53.380Z,25.03
2018-05-04T06:34:21.450Z,24.83
2018-05-04T06:36:49.032Z,24.80
2018-05-04T06:39:17.386Z,24.37
2018-05-04T06:41:44.924Z,25.77
2018-05-04T06:44:12.499Z,24.27
2018-05-04T06:46:40.032Z,25.50
2018-05-04T06:49:07.636Z,24.93
2018-05-04T06:51:35.168Z,23.63
2018-05-04T06:54:02.688Z,24.37
2018-05-04T06:56:30.298Z,24.53
2018-05-04T06:58:57.827Z,24.67
2018-05-04T07:01:25.414Z,24.53
2018-05-04T07:03:52.948Z,24.43
2018-05-04T07:06:20.577Z,22.90
2018-05-04T07:08:48.168Z,24.37
2018-05-04T07:11:16.259Z,22.20
2018-05-04T07:13:43.797Z,22.60
2018-05-04T07:16:11.379Z,23.70
2018-05-04T07:18:38.958Z,24.13
2018-05-04T07:21:06.571Z,23.47
2018-05-04T07:23:34.162Z,23.73
2018-05-04T07:26:01.791Z,22.87
2018-05-04T07:28:29.336Z,22.67
2018-05-04T07:30:56.937Z,22.17
2018-05-04T07:33:24.498Z,23.03
2018-05-04T07:35:52.116Z,22.20
2018-05-04T07:38:19.712Z,22.23
2018-05-04T07:40:47.281Z,23.97
2018-05-04T07:43:14.946Z,22.37
2018-05-04T07:45:42.498Z,23.43
2018-05-04T07:48:10.124Z,22.93
2018-05-04T07:50:38.430Z,23.50
2018-05-04T07:53:06.044Z,22.77
2018-05-04T07:55:33.628Z,22.80
2018-05-04T07:58:01.235Z,21.80
2018-05-04T08:00:28.773Z,22.33
2018-05-04T08:02:56.384Z,22.67
2018-05-04T08:05:23.953Z,22.47
2018-05-04T08:07:52.353Z,22.00
2018-05-04T08:10:19.917Z,21.97
2018-05-04T08:12:47.526Z,20.50
2018-05-04T08:15:15.118Z,22.63
2018-05-04T08:17:43.760Z,22.33
2018-05-04T08:20:11.450Z,21.53
2018-05-04T08:22:38.976Z,22.23
2018-05-04T08:25:06.573Z,22.07
2018-05-04T08:27:34.158Z,22.33
2018-05-04T08:30:02.012Z,20.43
2018-05-04T08:32:30.349Z,21.63
2018-05-04T08:34:58.754Z,21.30
2018-05-04T08:37:27.044Z,22.10
2018-05-04T08:39:54.661Z,21.37
2018-05-04T08:42:22.223Z,21.63
2018-05-04T08:44:49.835Z,20.90
2018-05-04T08:47:17.368Z,21.27
2018-05-04T08:49:44.963Z,21.03
2018-05-04T08:52:12.496Z,21.20
2018-05-04T08:54:40.842Z,20.40
2018-05-04T08:57:08.490Z,20.73
2018-05-04T08:59:36.038Z,22.53
2018-05-04T09:02:03.579Z,21.07
2018-05-04T09:04:31.192Z,20.97
2018-05-04T09:06:58.740Z,21.77
2018-05-04T09:09:26.288Z,22.17
2018-05-04T09:11:53.875Z,20.57
2018-05-04T09:14:22.199Z,19.73
2018-05-04T09:16:49.945Z,20.90
2018-05-04T09:19:17.515Z,21.03
2018-05-04T09:21:45.108Z,20.87
2018-05-04T09:24:12.630Z,21.23
2018-05-04T09:26:40.962Z,21.17
2018-05-04T09:29:08.506Z,20.70
2018-05-04T09:31:36.139Z,19.77
2018-05-04T09:34:03.728Z,20.60
2018-05-04T09:36:31.348Z,19.33
2018-05-04T09:38:59.044Z,20.20
2018-05-04T09:41:26.638Z,20.30
2018-05-04T09:43:54.989Z,20.67
2018-05-04T09:46:22.620Z,19.07
2018-05-04T09:48:50.248Z,20.20
2018-05-04T09:51:17.820Z,19.67
2018-05-04T09:53:45.390Z,18.93
2018-05-04T09:56:13.708Z,20.00
2018-05-04T09:58:41.351Z,18.73
2018-05-04T10:01:08.895Z,20.13
2018-05-04T10:03:36.541Z,19.63
2018-05-04T10:06:04.084Z,19.40
2018-05-04T10:08:31.681Z,19.63
2018-05-04T10:11:00.009Z,18.67
2018-05-04T10:13:27.607Z,19.87
2018-05-04T10:15:55.188Z,19.37
2018-05-04T10:18:22.747Z,18.70
2018-05-04T10:20:50.331Z,17.63
2018-05-04T10:23:17.955Z,20.10
2018-05-04T10:25:46.294Z,19.27
2018-05-04T10:28:13.889Z,18.90
2018-05-04T10:30:42.434Z,19.53
2018-05-04T10:33:10.068Z,18.23
2018-05-04T10:35:38.006Z,17.43
2018-05-04T10:38:05.630Z,18.37
2018-05-04T10:40:33.181Z,18.87
2018-05-04T10:43:00.784Z,19.53
2018-05-04T10:45:28.361Z,19.27
2018-05-04T10:47:55.954Z,19.83
2018-05-04T10:50:23.534Z,19.40
2018-05-04T10:52:51.110Z,20.37
2018-05-04T10:55:18.793Z,19.00
2018-05-04T10:57:47.142Z,20.10
2018-05-04T11:00:14.825Z,19.43
2018-05-04T11:02:42.409Z,19.40
2018-05-04T11:05:10.031Z,20.27
2018-05-04T11:07:37.560Z,19.50
2018-05-04T11:10:05.124Z,19.10
2018-05-04T11:12:32.723Z,19.73
2018-05-04T11:15:00.348Z,18.77
2018-05-04T11:17:27.883Z,18.40
2018-05-04T11:19:55.520Z,18.97
2018-05-04T11:22:23.077Z,19.37
2018-05-04T11:24:50.653Z,19.93
2018-05-04T11:27:18.276Z,20.43
2018-05-04T11:29:45.824Z,19.57
2018-05-04T11:32:13.474Z,19.70
2018-05-04T11:34:41.040Z,19.57
2018-05-04T11:37:08.658Z,20.33
2018-05-04T11:39:36.222Z,19.27
2018-05-04T11:42:03.867Z,19.50
2018-05-04T11:44:31.419Z,19.13
2018-05-04T11:46:59.731Z,20.40
2018-05-04T11:49:27.273Z,19.07
2018-05-04T11:51:54.958Z,19.27
2018-05-04T11:54:22.649Z,19.63
2018-05-04T11:56:51.061Z,19.07
2018-05-04T11:59:18.588Z,18.90
2018-05-04T12:01:46.214Z,19.03
2018-05-04T12:04:13.818Z,18.67
2018-05-04T12:06:41.432Z,19.93
2018-05-04T12:09:09.767Z,18.17
2018-05-04T12:11:37.716Z,19.53
2018-05-04T12:14:05.248Z,19.27
2018-05-04T12:16:32.822Z,20.40
2018-05-04T12:19:00.428Z,20.67
2018-05-04T12:21:28.007Z,18.77
2018-05-04T12:23:55.597Z,20.27
2018-05-04T12:26:23.107Z,21.03
2018-05-04T12:28:50.674Z,19.80
2018-05-04T12:31:18.257Z,19.47
2018-05-04T12:33:45.892Z,19.43
2018-05-04T12:36:14.281Z,20.70
2018-05-04T12:38:41.943Z,20.93
2018-05-04T12:41:09.536Z,20.17
2018-05-04T12:43:37.125Z,20.33
2018-05-04T12:46:05.435Z,20.80
2018-05-04T12:48:32.993Z,21.50
2018-05-04T12:51:00.547Z,20.30
2018-05-04T12:53:29.041Z,21.00
2018-05-04T12:55:57.344Z,22.07
2018-05-04T12:58:24.975Z,20.63
2018-05-04T13:00:52.528Z,20.50
2018-05-04T13:03:20.072Z,19.93
2018-05-04T13:05:47.668Z,20.87
2018-05-04T13:08:15.219Z,21.70
2018-05-04T13:10:43.599Z,21.73
2018-05-04T13:13:11.111Z,21.67
2018-05-04T13:15:38.685Z,21.07
2018-05-04T13:18:06.287Z,23.83
2018-05-04T13:20:33.845Z,21.27
2018-05-04T13:23:01.420Z,23.23
2018-05-04T13:25:29.078Z,23.63
2018-05-04T13:27:56.617Z,22.37
2018-05-04T13:30:24.221Z,22.73
2018-05-04T13:32:51.793Z,21.10
2018-05-04T13:35:19.396Z,22.03
2018-05-04T13:37:46.957Z,22.17
2018-05-04T13:40:14.614Z,22.80
2018-05-04T13:42:42.303Z,23.40
2018-05-04T13:45:10.038Z,22.43
2018-05-04T13:47:37.617Z,23.23
2018-05-04T13:50:05.172Z,22.57
2018-05-04T13:52:32.809Z,22.67
2018-05-04T13:55:01.134Z,23.40
2018-05-04T13:57:28.711Z,23.67
2018-05-04T13:59:56.230Z,22.40
2018-05-04T14:02:23.907Z,24.00
2018-05-04T14:04:51.545Z,23.10
2018-05-04T14:07:19.151Z,23.80
2018-05-04T14:09:46.727Z,22.03
2018-05-04T14:12:14.382Z,25.43
2018-05-04T14:14:41.935Z,21.93
2018-05-04T14:17:09.563Z,21.97
2018-05-04T14:19:37.159Z,21.80
2018-05-04T14:22:04.743Z,22.57
2018-05-04T14:24:32.340Z,23.37
2018-05-04T14:26:59.936Z,23.60
2018-05-04T14:29:27.495Z,23.57
2018-05-04T14:31:55.107Z,22.87
2018-05-04T14:34:23.463Z,24.30
2018-05-04T14:36:51.119Z,23.77
2018-05-04T14:39:18.779Z,20.67
2018-05-04T14:41:46.341Z,24.93
2018-05-04T14:44:13.939Z,21.03
2018-05-04T14:46:41.524Z,24.37
2018-05-04T14:49:09.167Z,22.90
2018-05-04T14:51:36.733Z,23.40
2018-05-04T14:54:04.381Z,22.13
2018-05-04T14:56:31.958Z,23.13
2018-05-04T14:58:59.534Z,22.40
2018-05-04T15:01:27.148Z,23.07
2018-05-04T15:03:54.813Z,22.60
2018-05-04T15:06:22.368Z,23.20
2018-05-04T15:08:50.832Z,21.80
2018-05-04T15:11:18.404Z,21.47
2018-05-04T15:13:46.797Z,21.17
2018-05-04T15:16:14.369Z,22.17
2018-05-04T15:18:42.043Z,21.30
2018-05-04T15:21:09.747Z,21.70
2018-05-04T15:23:37.356Z,22.83
2018-05-04T15:26:04.951Z,23.67
2018-05-04T15:28:32.523Z,22.47
2018-05-04T15:31:00.094Z,21.97
2018-05-04T15:33:27.635Z,24.13
2018-05-04T15:35:55.984Z,23.83
2018-05-04T15:38:23.538Z,25.03
2018-05-04T15:40:51.176Z,24.73
2018-05-04T15:43:18.779Z,24.03
2018-05-04T15:45:46.404Z,23.20
2018-05-04T15:48:20.326Z,24.07
2018-05-04T15:50:53.583Z,23.00
2018-05-04T15:53:21.127Z,23.40
2018-05-04T15:55:48.720Z,23.73
2018-05-04T15:58:17.068Z,23.63
2018-05-04T16:00:44.758Z,24.07
2018-05-04T16:03:12.313Z,23.10
2018-05-04T16:05:39.901Z,23.50
2018-05-04T16:08:07.506Z,23.63
2018-05-04T16:10:35.091Z,22.10
2018-05-04T16:13:03.469Z,23.03
2018-05-04T16:15:31.003Z,21.20
2018-05-04T16:17:58.620Z,20.73
2018-05-04T16:20:26.257Z,21.10
2018-05-04T16:22:53.811Z,20.87
2018-05-04T16:25:21.361Z,20.30
2018-05-04T16:27:48.979Z,21.97
2018-05-04T16:30:16.549Z,20.33
2018-05-04T16:32:44.179Z,20.60
2018-05-04T16:35:11.736Z,21.33
2018-05-04T16:37:39.344Z,21.83
2018-05-04T16:40:06.900Z,20.17
2018-05-04T16:42:34.491Z,20.53
2018-05-04T16:45:02.149Z,19.37
2018-05-04T16:47:29.707Z,20.53
2018-05-04T16:49:57.315Z,19.43
2018-05-04T16:52:24.931Z,20.47
2018-05-04T16:54:52.514Z,19.77
2018-05-04T16:57:20.801Z,21.20
2018-05-04T16:59:48.451Z,20.70
2018-05-04T17:02:16.003Z,19.40
2018-05-04T17:04:43.629Z,21.07
2018-05-04T17:07:11.179Z,21.90
2018-05-04T17:09:38.757Z,23.00
2018-05-04T17:12:06.311Z,21.87
2018-05-04T17:14:33.911Z,23.17
2018-05-04T17:17:02.257Z,21.13
2018-05-04T17:19:29.848Z,21.70
2018-05-04T17:21:58.272Z,16.93
2018-05-04T17:24:25.833Z,16.60
2018-05-04T17:26:53.389Z,15.10
2018-05-04T17:29:20.977Z,15.50
2018-05-04T17:31:48.630Z,14.17
2018-05-04T17:34:16.210Z,12.80
2018-05-04T17:36:44.583Z,12.93
2018-05-04T17:39:12.222Z,11.47
2018-05-04T17:41:39.765Z,10.67
2018-05-04T17:44:07.290Z,10.20
2018-05-04T17:46:34.865Z,10.30
2018-05-04T17:49:02.819Z,10.70
2018-05-04T17:51:30.447Z,10.20
2018-05-04T17:53:57.977Z,10.80
2018-05-04T17:56:25.595Z,12.80
2018-05-04T17:58:53.177Z,11.20
2018-05-04T18:01:20.762Z,12.83
2018-05-04T18:03:48.337Z,12.77
2018-05-04T18:06:15.918Z,13.77
2018-05-04T18:08:43.479Z,15.03
2018-05-04T18:11:11.063Z,14.97
2018-05-04T18:13:38.703Z,14.77
2018-05-04T18:16:06.289Z,16.30
2018-05-04T18:18:34.619Z,16.13
2018-05-04T18:21:02.270Z,16.93
2018-05-04T18:23:29.799Z,18.53
2018-05-04T18:25:57.429Z,18.20
2018-05-04T18:28:25.021Z,18.60
2018-05-04T18:30:52.535Z,18.90
2018-05-04T18:33:20.089Z,19.30
2018-05-04T18:35:47.643Z,19.77
2018-05-04T18:38:15.260Z,20.47
2018-05-04T18:40:42.799Z,20.63
2018-05-04T18:43:10.371Z,20.47
2018-05-04T18:45:37.933Z,21.43
2018-05-04T18:48:05.505Z,20.33
2018-05-04T18:50:33.053Z,20.97
2018-05-04T18:53:01.383Z,23.23
2018-05-04T18:55:28.976Z,23.73
2018-05-04T18:57:56.542Z,22.90
2018-05-04T19:00:24.851Z,24.60
2018-05-04T19:02:58.027Z,24.27
2018-05-04T19:05:25.639Z,24.53
2018-05-04T19:07:53.200Z,25.57
2018-05-04T19:10:20.785Z,26.10
2018-05-04T19:12:49.175Z,26.17
2018-05-04T19:15:16.793Z,27.43
2018-05-04T19:17:46.164Z,27.10
2018-05-04T19:20:13.723Z,27.37
2018-05-04T19:22:41.278Z,27.40
2018-05-04T19:25:08.879Z,27.83
2018-05-04T19:27:36.426Z,27.57
2018-05-04T19:30:04.108Z,27.70
2018-05-04T19:32:31.670Z,27.90
2018-05-04T19:34:59.240Z,30.43
2018-05-04T19:37:26.849Z,28.37
2018-05-04T19:39:54.531Z,28.73
2018-05-04T19:42:22.890Z,27.90
2018-05-04T19:44:50.478Z,27.97
2018-05-04T19:47:18.790Z,28.87
2018-05-04T19:49:46.369Z,29.20
2018-05-04T19:52:13.902Z,28.23
2018-05-04T19:54:41.491Z,30.03
2018-05-04T19:57:09.901Z,27.93
2018-05-04T19:59:37.479Z,28.10
2018-05-04T20:02:05.753Z,28.90
2018-05-04T20:04:33.345Z,29.03
2018-05-04T20:07:01.027Z,29.07
2018-05-04T20:09:28.544Z,28.87
2018-05-04T20:11:56.168Z,28.67
2018-05-04T20:14:23.716Z,30.30
2018-05-04T20:16:51.273Z,30.53
2018-05-04T20:19:18.821Z,31.73
2018-05-04T20:21:47.150Z,31.70
2018-05-04T20:24:14.701Z,32.17
2018-05-04T20:26:42.352Z,32.93
2018-05-04T20:29:09.895Z,34.30
2018-05-04T20:31:37.455Z,33.53
2018-05-04T20:34:05.036Z,32.27
2018-05-04T20:36:32.668Z,32.97
2018-05-04T20:39:00.328Z,33.00
2018-05-04T20:41:28.683Z,32.33
2018-05-04T20:43:56.250Z,33.37
2018-05-04T20:46:24.635Z,34.83
2018-05-04T20:48:52.181Z,32.63
2018-05-04T20:51:19.791Z,33.23
2018-05-04T20:53:47.348Z,32.93
2018-05-04T20:56:15.015Z,34.30
2018-05-04T20:58:42.606Z,32.47
2018-05-04T21:01:10.255Z,34.90
2018-05-04T21:03:37.837Z,34.03
2018-05-04T21:06:05.388Z,32.27
2018-05-04T21:08:32.987Z,32.33
2018-05-04T21:11:00.577Z,33.13
2018-05-04T21:13:28.172Z,34.63
2018-05-04T21:15:55.718Z,34.33
2018-05-04T21:18:23.283Z,33.40
2018-05-04T21:20:50.857Z,32.97
2018-05-04T21:23:18.471Z,32.77
2018-05-04T21:25:46.051Z,32.50
2018-05-04T21:28:13.652Z,33.87
2018-05-04T21:30:41.295Z,33.20
2018-05-04T21:33:08.935Z,33.43
2018-05-04T21:35:36.512Z,33.57
2018-05-04T21:38:04.103Z,33.47
2018-05-04T21:40:31.718Z,32.63
2018-05-04T21:42:59.247Z,35.07
2018-05-04T21:45:26.851Z,33.43
2018-05-04T21:47:54.412Z,35.40
2018-05-04T21:50:22.031Z,35.97
2018-05-04T21:52:49.561Z,32.60
2018-05-04T21:55:17.895Z,33.03
2018-05-04T21:57:45.449Z,33.33
2018-05-04T22:00:13.019Z,33.60
2018-05-04T22:02:40.567Z,31.90
2018-05-04T22:05:08.653Z,32.90
2018-05-04T22:07:36.195Z,32.70
2018-05-04T22:10:03.763Z,32.37
2018-05-04T22:12:32.097Z,33.40
2018-05-04T22:14:59.678Z,32.70
2018-05-04T22:17:27.242Z,32.23
2018-05-04T22:19:54.847Z,31.83
2018-05-04T22:22:22.454Z,32.50
2018-05-04T22:24:50.076Z,32.93
2018-05-04T22:27:17.649Z,33.00
2018-05-04T22:29:45.995Z,32.60
2018-05-04T22:32:13.521Z,32.40
2018-05-04T22:34:41.063Z,31.93
2018-05-04T22:37:08.744Z,32.63
2018-05-04T22:39:36.279Z,31.77
2018-05-04T22:42:03.898Z,30.40
2018-05-04T22:44:31.472Z,31.17
2018-05-04T22:46:59.164Z,31.10
2018-05-04T22:49:26.750Z,31.40
2018-05-04T22:51:54.392Z,30.93
2018-05-04T22:54:22.017Z,31.20
2018-05-04T22:56:49.622Z,31.47
2018-05-04T22:59:17.206Z,30.83
2018-05-04T23:01:44.820Z,30.43
2018-05-04T23:04:12.386Z,31.17
2018-05-04T23:06:39.970Z,31.90
2018-05-04T23:09:07.552Z,30.10
2018-05-04T23:11:35.165Z,31.17
2018-05-04T23:14:03.522Z,31.40
2018-05-04T23:16:31.125Z,31.93
2018-05-04T23:18:58.703Z,32.63
2018-05-04T23:21:26.287Z,31.27
2018-05-04T23:23:53.894Z,31.37
2018-05-04T23:26:21.433Z,31.57
2018-05-04T23:28:48.998Z,30.60
2018-05-04T23:31:16.546Z,32.13
2018-05-04T23:33:44.126Z,31.20
2018-05-04T23:36:11.826Z,30.77
2018-05-04T23:38:39.431Z,29.07
2018-05-04T23:41:07.783Z,30.30
2018-05-04T23:43:35.333Z,31.63
2018-05-04T23:46:02.849Z,31.57
2018-05-04T23:48:31.190Z,30.97
2018-05-04T23:50:58.727Z,31.37
2018-05-04T23:53:26.286Z,30.83
2018-05-04T23:55:53.843Z,29.83
2018-05-04T23:58:21.487Z,31.70
